Flight Track Log - Related Links

Times and Time Zones

All times are in EDT time to prevent confusion due to time zone crossing. See the AWE1600 flight status page for this flight to view local times or setup timezone preferences in your user account.

Time Position Orientation Groundspeed Altitude Reporting Facility
EDT Latitude Longitude Course Direction KTS km/h meters Rate Location/Type
Fri 09:25:45 39.8667 -75.2833 270° West 156 290 244  Level Philadelphia TRACON
Fri 09:27:54 39.8425 -75.4211 257° West 229 425 1,707 778 Climbing New York Center
Fri 09:28:53 39.8514 -75.5111 277° West 241 446 2,682 676 Climbing New York Center
Fri 09:29:53 39.8603 -75.6036 277° West 260 481 3,048 476 Climbing New York Center
Fri 09:30:52 39.8678 -75.7203 275° West 297 550 3,627 732 Climbing New York Center
Fri 09:31:00 39.9000 -75.9337 270° West  Level FlightAware Approximate
Fri 09:31:53 39.8794 -75.8431 277° West 323 599 4,511  Level New York Center
Fri 09:32:54 39.8925 -75.9739 277° West 342 634 5,395 676 Climbing New York Center
Fri 09:33:52 39.9039 -76.0911 277° West 352 652 5,852 584 Climbing New York Center
Fri 09:34:53 39.9139 -76.2353 275° West 363 673 6,553 579 Climbing New York Center
Fri 09:35:52 39.9264 -76.3689 277° West 368 681 7,010 259 Climbing New York Center
Fri 09:36:53 39.9408 -76.5056 278° West 374 692 7,071 274 Climbing New York Center
Fri 09:37:52 39.9486 -76.6442 274° West 379 702 7,559 476 Climbing New York Center
Fri 09:38:52 39.9622 -76.7836 277° West 384 711 8,016 514 Climbing New York Center
Fri 09:39:53 39.9736 -76.9283 276° West 394 729 8,595 480 Climbing New York Center
Fri 09:40:54 39.9869 -77.0703 277° West 394 729 8,992 378 Climbing New York Center
Fri 09:41:54 40.0111 -77.2053 283° West 394 729 9,357 387 Climbing New York Center
Fri 09:42:52 40.0583 -77.3317 296° West 380 703 9,754 356 Climbing New York Center
Fri 09:43:52 40.0631 -77.4678 273° West 380 703 10,058 168 Climbing New York Center
Fri 09:44:52 40.0514 -77.5997 263° West 380 703 10,089 194 Climbing New York Center
Fri 09:45:45 40.0433 -77.7058 264° West 363 673 10,424 308 Climbing Cleveland Center
Fri 09:46:45 40.0339 -77.8336 265° West 358 663 10,668 122 Climbing Cleveland Center
Fri 09:47:45 40.0439 -77.9850 275° West 364 674 10,668  Level Cleveland Center
Fri 09:48:45 40.0572 -78.1203 277° West 375 695 10,668  Level Cleveland Center
Fri 09:49:45 40.0683 -78.2581 276° West 386 715 10,668  Level Cleveland Center
Fri 09:50:45 40.0794 -78.3961 276° West 386 715 10,668  Level Cleveland Center
Fri 09:51:45 40.0925 -78.5314 277° West 386 715 10,668  Level Cleveland Center
Fri 09:52:45 40.1033 -78.6694 276° West 386 715 10,668  Level Cleveland Center
Fri 09:53:45 40.1158 -78.8075 277° West 386 715 10,668  Level Cleveland Center
Fri 09:54:45 40.1264 -78.9486 276° West 386 715 10,668  Level Cleveland Center
Fri 09:55:45 40.1386 -79.0894 277° West 386 715 10,668  Level Cleveland Center
Fri 09:56:45 40.1653 -79.2247 285° West 386 715 10,668 -107 Level Cleveland Center
Fri 09:57:45 40.2106 -79.3517 295° West 386 715 10,455 -229 Descending Cleveland Center
Fri 09:58:45 40.2558 -79.4786 295° West 386 715 10,211 -198 Descending Cleveland Center
Fri 09:59:45 40.2986 -79.6058 294° West 392 726 10,058 -76 Descending Cleveland Center
Fri 10:00:45 40.3414 -79.7386 293° West 392 726 10,058 -107 Level Cleveland Center
Fri 10:01:45 40.3858 -79.8689 294° West 392 726 9,845 -244 Descending Cleveland Center
Fri 10:02:45 40.4283 -79.9994 293° West 392 726 9,571 -274 Descending Cleveland Center
Fri 10:03:45 40.4728 -80.1356 293° West 392 726 9,296 -213 Descending Cleveland Center
Fri 10:04:45 40.5169 -80.2692 294° West 392 726 9,144 -76 Descending Cleveland Center
Fri 10:05:45 40.5569 -80.3836 295° West 392 726 9,144  Level Cleveland Center
Fri 10:06:45 40.5986 -80.5203 292° West 398 737 9,144  Level Cleveland Center
Fri 10:07:45 40.6425 -80.6517 294° West 398 737 9,144  Level Cleveland Center
Fri 10:08:45 40.6944 -80.7803 298° West 398 737 9,144  Level Cleveland Center
Fri 10:09:45 40.7547 -80.9039 303° West 398 737 9,144  Level Cleveland Center
Fri 10:10:45 40.8147 -81.0275 303° West 403 747 9,144  Level Cleveland Center
Fri 10:11:45 40.8767 -81.1625 301° West 408 756 9,144  Level Cleveland Center
Fri 10:12:45 40.9364 -81.2867 303° West 408 756 9,144 -137 Level Cleveland Center
Fri 10:13:45 40.9961 -81.4083 303° West 408 756 8,870 -290 Descending Cleveland Center
Fri 10:14:45 41.0556 -81.5303 303° West 402 745 8,565 -305 Descending Cleveland Center
Fri 10:15:45 41.1108 -81.6497 302° West 392 726 8,260 -290 Descending Cleveland Center
Fri 10:16:45 41.1639 -81.7497 305° West 386 715 7,986 -290 Descending Cleveland Center
Fri 10:17:45 41.2211 -81.8694 302° West 381 705 7,681 -457 Descending Cleveland Center
Fri 10:18:45 41.2758 -81.9839 302° West 381 705 7,071 -594 Descending Cleveland Center
Fri 10:19:45 41.3328 -82.1039 302° West 381 705 6,492 -579 Descending Cleveland Center
Fri 10:20:45 41.3936 -82.2272 303° West 371 687 5,913 -533 Descending Cleveland Center
Fri 10:21:45 41.4547 -82.3286 309° West 365 676 5,425 -619 Descending Cleveland Center
Fri 10:22:52 41.5197 -82.4331 310° West 347 642 4,602 -732 Descending Cleveland Center
Fri 10:23:45 41.5744 -82.5261 308° West 348 644 3,962 -502 Descending Cleveland Center
Fri 10:24:45 41.6292 -82.6194 308° West 337 624 3,658 -226 Descending Cleveland Center
Fri 10:25:06 41.6494 -82.6478 314° West 318 589 3,658  Level Cleveland Center
Fri 10:25:45 41.6839 -82.7103 306° West 325 602 3,658  Level Cleveland Center
Fri 10:26:07 41.7061 -82.7497 307° West 316 586 3,658  Level Cleveland Center
Fri 10:26:45 41.7406 -82.8011 312° West 320 592 3,658  Level Cleveland Center
Fri 10:27:14 41.7753 -82.8356 324° Northwest 313 579 3,658  Level Cleveland Center
Fri 10:27:45 41.8036 -82.8756 314° West 314 581 3,658  Level Cleveland Center
Fri 10:28:03 41.8281 -82.9044 319° Northwest 310 575 3,658  Level Cleveland Center
Fri 10:29:04 41.8931 -82.9822 318° Northwest 309 573 3,658  Level Cleveland Center
Fri 10:29:45 41.9339 -83.0311 318° Northwest 309 573 3,658  Level Cleveland Center
Fri 10:30:45 41.9928 -83.1031 318° Northwest 304 563 3,658  Level Cleveland Center
Fri 10:31:07 42.0150 -83.1264 322° Northwest 259 480 3,658  Level Cleveland Center
Fri 10:31:45 42.0475 -83.1669 317° Northwest 283 525 3,658  Level Cleveland Center
Fri 10:32:07 42.0678 -83.1928 317° Northwest 260 481 3,658  Level Cleveland Center
Fri 10:32:45 42.0964 -83.2192 326° Northwest 254 470 3,658 -164 Level Cleveland Center
Fri 10:33:14 42.1294 -83.2289 348° North 209 388 3,475 -569 Descending Cleveland Center
Fri 10:34:15 42.1858 -83.2258 North 225 417 2,804 -645 Descending Cleveland Center
Fri 10:35:16 42.2431 -83.1833 29° Northeast 228 422 2,164 -600 Descending Cleveland Center
Fri 10:36:23 42.3086 -83.1522 19° North 230 426 1,524 -570 Descending Cleveland Center
Fri 10:37:18 42.3428 -83.2069 310° West 213 394 1,006 -315 Descending Cleveland Center
Fri 10:38:19 42.3206 -83.2622 241° Southwest 165 306 914 -90 Descending Cleveland Center

Login

Don't have an account? Register now (free) for customized features, flight alerts, and more!